Time;durP1;ratioP1;P1;durP2;ratioP2;P2;SDS_P1;SDS_P2;PMS_P1;PMS_P2;Temp;Humidity;BMP_temperature;BMP_pressure;BME280_temperature;BME280_humidity;BME280_pressure;Samples;Min_cycle;Max_cycle;Signal;HPM_P1;HPM_P2
2024/02/23 00:01:33;;;;;;;9.87;6.30;;;;;;;9.89;67.95;99262.33;1473737;87;21346;-79
2024/02/23 00:04:02;;;;;;;9.07;5.67;;;;;;;9.97;67.05;99269.41;1475021;87;21448;-79
2024/02/23 00:06:29;;;;;;;11.40;6.30;;;;;;;9.99;67.36;99272.72;1479182;87;21367;-78
2024/02/23 00:08:56;;;;;;;10.60;7.33;;;;;;;9.97;68.00;99266.27;1476662;87;21412;-79
2024/02/23 00:11:24;;;;;;;11.67;6.77;;;;;;;9.98;68.32;99270.55;1470207;88;21361;-80
2024/02/23 00:13:51;;;;;;;8.50;5.97;;;;;;;9.94;67.83;99256.86;1471675;88;22314;-78
2024/02/23 00:16:18;;;;;;;9.60;5.93;;;;;;;9.94;68.26;99259.50;1466276;87;21390;-78
2024/02/23 00:18:45;;;;;;;8.33;5.33;;;;;;;9.94;67.74;99255.54;1473837;88;21353;-79
2024/02/23 00:21:12;;;;;;;8.07;5.27;;;;;;;9.96;67.05;99255.38;1480336;88;22438;-79
2024/02/23 00:23:39;;;;;;;10.77;7.20;;;;;;;9.98;67.00;99247.27;1473549;87;22173;-79
2024/02/23 00:26:06;;;;;;;9.70;6.33;;;;;;;9.99;67.10;99239.17;1477559;87;21412;-79
2024/02/23 00:28:33;;;;;;;11.20;6.43;;;;;;;10.01;67.19;99240.31;1473759;87;21361;-79
2024/02/23 00:31:00;;;;;;;9.00;5.93;;;;;;;9.99;66.94;99238.36;1478179;88;21294;-79
2024/02/23 00:33:27;;;;;;;10.00;6.37;;;;;;;10.00;66.96;99232.06;1472887;87;22292;-80
2024/02/23 00:35:55;;;;;;;9.87;6.40;;;;;;;9.98;66.62;99248.58;1468820;88;21480;-80
2024/02/23 00:38:22;;;;;;;8.40;6.07;;;;;;;9.97;66.64;99252.23;1475773;87;21383;-80
2024/02/23 00:40:49;;;;;;;9.63;5.93;;;;;;;9.97;66.56;99242.98;1469107;88;22228;-79
2024/02/23 00:43:19;;;;;;;8.87;5.80;;;;;;;9.99;66.58;99225.14;1475749;88;21632;-80
2024/02/23 00:45:46;;;;;;;9.38;6.22;;;;;;;9.98;66.72;99222.97;1473040;87;22448;-78
2024/02/23 00:48:13;;;;;;;13.07;6.73;;;;;;;9.97;66.46;99219.20;1478266;87;21589;-77
2024/02/23 00:50:40;;;;;;;11.53;6.40;;;;;;;9.97;66.55;99229.77;1474351;87;21818;-78
2024/02/23 00:53:07;;;;;;;15.83;8.17;;;;;;;9.92;66.75;99228.45;1473545;87;21463;-76
2024/02/23 00:55:34;;;;;;;11.17;6.40;;;;;;;9.92;66.28;99221.02;1469569;88;21471;-77
2024/02/23 00:58:03;;;;;;;14.33;6.70;;;;;;;9.91;66.47;99214.92;1472654;88;21367;-75
2024/02/23 01:00:30;;;;;;;11.40;6.77;;;;;;;9.91;66.59;99218.06;1469522;88;21487;-76
2024/02/23 01:02:59;;;;;;;12.97;7.23;;;;;;;9.91;66.34;99216.23;1472902;88;21449;-77
2024/02/23 01:05:26;;;;;;;9.17;5.73;;;;;;;9.89;66.62;99220.87;1472241;87;21390;-75
2024/02/23 01:07:54;;;;;;;14.20;7.47;;;;;;;9.85;66.80;99219.58;1481944;87;21339;-75
2024/02/23 01:10:21;;;;;;;9.67;6.40;;;;;;;9.84;66.87;99217.94;1475068;87;21435;-75
2024/02/23 01:12:48;;;;;;;11.23;7.37;;;;;;;9.81;67.13;99220.93;1470390;87;22343;-75
2024/02/23 01:15:15;;;;;;;13.37;6.87;;;;;;;9.77;67.28;99218.28;1480767;87;21464;-75
2024/02/23 01:17:42;;;;;;;12.53;7.40;;;;;;;9.73;67.48;99231.53;1469247;87;21523;-77
2024/02/23 01:20:11;;;;;;;15.73;8.03;;;;;;;9.69;67.67;99226.24;1476466;87;22454;-75
2024/02/23 01:22:38;;;;;;;10.00;6.93;;;;;;;9.66;67.81;99216.02;1473887;87;21516;-76
2024/02/23 01:25:06;;;;;;;12.90;7.07;;;;;;;9.63;67.87;99220.33;1466273;88;21478;-75
2024/02/23 01:27:33;;;;;;;13.17;6.53;;;;;;;9.61;67.93;99219.66;1475476;87;21390;-76
2024/02/23 01:30:00;;;;;;;14.17;7.70;;;;;;;9.58;68.13;99223.97;1469920;88;21286;-76
2024/02/23 01:32:28;;;;;;;12.43;6.57;;;;;;;9.57;68.34;99224.97;1475458;87;22181;-76
2024/02/23 01:34:55;;;;;;;14.67;8.33;;;;;;;9.54;68.18;99218.72;1472800;88;22462;-78
2024/02/23 01:37:22;;;;;;;9.63;6.17;;;;;;;9.53;68.25;99223.68;1475050;88;21471;-77
2024/02/23 01:39:49;;;;;;;10.23;7.30;;;;;;;9.48;68.11;99211.79;1475863;87;21294;-76
2024/02/23 01:42:17;;;;;;;12.17;6.70;;;;;;;9.51;68.00;99217.73;1474707;88;21489;-76
2024/02/23 01:44:44;;;;;;;11.03;6.87;;;;;;;9.52;67.96;99218.05;1466153;87;21512;-76
2024/02/23 01:47:12;;;;;;;10.37;7.30;;;;;;;9.51;67.97;99213.77;1473879;88;21413;-76
2024/02/23 01:49:39;;;;;;;13.03;7.13;;;;;;;9.52;67.76;99211.45;1469723;87;21471;-76
2024/02/23 01:52:06;;;;;;;14.80;6.80;;;;;;;9.52;67.90;99214.09;1478536;87;21419;-76
2024/02/23 01:54:34;;;;;;;20.17;7.90;;;;;;;9.53;67.72;99214.44;1472254;87;21871;-76
2024/02/23 01:57:02;;;;;;;12.80;6.57;;;;;;;9.53;67.72;99210.47;1470175;88;21504;-76
2024/02/23 01:59:29;;;;;;;9.53;6.30;;;;;;;9.53;67.94;99213.11;1474992;88;21382;-76
2024/02/23 02:01:56;;;;;;;12.10;7.13;;;;;;;9.54;67.96;99210.79;1440458;87;21368;-76
2024/02/23 02:04:23;;;;;;;11.13;7.33;;;;;;;9.53;67.87;99210.47;1465501;88;22306;-76
2024/02/23 02:06:51;;;;;;;9.10;6.30;;;;;;;9.53;67.97;99209.16;1477405;87;21501;-76
2024/02/23 02:09:18;;;;;;;9.37;5.80;;;;;;;9.53;67.81;99217.08;1478926;87;21368;-77
2024/02/23 02:11:48;;;;;;;14.83;6.87;;;;;;;9.52;67.84;99210.95;1473614;87;21847;-76
2024/02/23 02:14:17;;;;;;;13.78;6.08;;;;;;;9.56;67.55;99214.09;1476094;87;22328;-75
2024/02/23 02:16:45;;;;;;;13.07;7.13;;;;;;;9.61;67.28;99232.88;1473847;87;22416;-77
2024/02/23 02:19:13;;;;;;;10.60;6.37;;;;;;;9.67;67.13;99237.50;1472686;87;21360;-77
2024/02/23 02:21:41;;;;;;;9.40;5.33;;;;;;;9.72;67.54;99235.14;1476957;87;21441;-77
2024/02/23 02:24:08;;;;;;;11.93;6.57;;;;;;;9.74;68.34;99246.37;1469892;88;21339;-76
2024/02/23 02:26:37;;;;;;;8.87;6.07;;;;;;;9.74;68.85;99241.09;1473851;87;21486;-78
2024/02/23 02:29:04;;;;;;;9.80;6.37;;;;;;;9.71;69.54;99248.04;1476004;87;21405;-76
2024/02/23 02:31:36;;;;;;;11.13;5.73;;;;;;;9.67;70.27;99248.89;1477338;87;21352;-78
2024/02/23 02:34:00;;;;;;;9.90;5.77;;;;;;;9.66;70.80;99239.80;1471770;87;21471;-78
2024/02/23 02:36:27;;;;;;;11.37;5.37;;;;;;;9.63;71.46;99243.59;1472849;88;21331;-79
2024/02/23 02:38:56;;;;;;;8.80;4.73;;;;;;;9.60;72.12;99243.12;1477071;87;22290;-80
2024/02/23 02:41:26;;;;;;;7.97;5.43;;;;;;;9.61;72.23;99243.44;1477243;87;21360;-78
2024/02/23 02:43:53;;;;;;;8.58;5.58;;;;;;;9.59;72.38;99243.62;1501784;87;21419;-76
2024/02/23 02:46:20;;;;;;;10.70;6.23;;;;;;;9.56;72.62;99248.43;1472411;87;21456;-77
2024/02/23 02:48:47;;;;;;;9.30;5.63;;;;;;;9.55;72.73;99244.13;1476908;87;22314;-77
2024/02/23 02:51:14;;;;;;;9.93;5.03;;;;;;;9.53;73.39;99242.98;1473626;87;21323;-74
2024/02/23 02:53:41;;;;;;;9.83;5.67;;;;;;;9.53;72.80;99247.45;1474880;87;21352;-77
2024/02/23 02:56:08;;;;;;;11.67;5.53;;;;;;;9.52;72.83;99251.06;1472773;87;21419;-77
2024/02/23 02:58:35;;;;;;;9.80;5.23;;;;;;;9.51;73.06;99261.31;1476573;87;22233;-76
2024/02/23 03:01:03;;;;;;;10.63;5.13;;;;;;;9.48;73.40;99258.01;1470402;88;21383;-76
2024/02/23 03:03:30;;;;;;;8.17;5.03;;;;;;;9.43;74.65;99257.69;1473770;87;21537;-77
2024/02/23 03:05:57;;;;;;;9.47;5.43;;;;;;;9.37;75.51;99261.00;1477977;87;22425;-77
2024/02/23 03:08:24;;;;;;;10.73;5.23;;;;;;;9.32;75.14;99265.14;1476392;88;21405;-77
2024/02/23 03:10:52;;;;;;;9.77;5.63;;;;;;;9.28;75.74;99259.38;1476162;88;21330;-76
2024/02/23 03:13:18;;;;;;;9.47;5.73;;;;;;;9.24;75.60;99254.11;1468347;88;21397;-78
2024/02/23 03:15:46;;;;;;;10.57;5.73;;;;;;;9.19;76.06;99258.56;1477297;87;22313;-78
2024/02/23 03:18:14;;;;;;;8.70;5.60;;;;;;;9.14;76.46;99264.83;1475817;87;21383;-78
2024/02/23 03:20:42;;;;;;;7.50;5.67;;;;;;;9.12;76.59;99260.70;1472858;87;21346;-78
2024/02/23 03:23:11;;;;;;;7.47;5.27;;;;;;;9.09;77.00;99263.69;1465836;88;21353;-78
2024/02/23 03:25:38;;;;;;;10.33;6.17;;;;;;;9.07;76.76;99257.77;1432002;87;21397;-79
2024/02/23 03:28:05;;;;;;;8.30;5.97;;;;;;;9.06;77.03;99261.37;1472443;87;21420;-78
2024/02/23 03:30:33;;;;;;;7.97;5.27;;;;;;;9.03;76.79;99258.57;1468076;88;21532;-77
2024/02/23 03:33:00;;;;;;;9.10;5.77;;;;;;;9.04;77.12;99268.16;1477232;88;21346;-75
2024/02/23 03:35:27;;;;;;;8.80;5.60;;;;;;;9.02;77.71;99256.94;1474501;87;22440;-75
2024/02/23 03:37:54;;;;;;;11.90;6.63;;;;;;;8.98;77.24;99261.73;1474310;87;21301;-76
2024/02/23 03:40:21;;;;;;;8.37;5.33;;;;;;;8.99;76.51;99267.33;1472420;88;21279;-77
2024/02/23 03:42:48;;;;;;;9.17;6.53;;;;;;;9.03;76.30;99259.42;1470147;87;21522;-77
2024/02/23 03:45:16;;;;;;;19.37;5.27;;;;;;;9.06;76.22;99264.84;1472744;88;21360;-78
2024/02/23 03:47:43;;;;;;;7.50;4.93;;;;;;;9.06;75.78;99268.80;1472759;87;21435;-77
2024/02/23 03:50:10;;;;;;;7.43;4.97;;;;;;;9.08;75.52;99274.74;1475646;87;21397;-77
2024/02/23 03:52:37;;;;;;;8.67;5.87;;;;;;;9.11;75.69;99274.41;1481338;87;21658;-78
2024/02/23 03:55:06;;;;;;;8.17;5.07;;;;;;;9.13;75.64;99276.89;1473492;87;21353;-77
2024/02/23 03:57:33;;;;;;;10.20;5.47;;;;;;;9.14;75.78;99284.63;1456097;87;21353;-75
2024/02/23 04:00:00;;;;;;;14.43;5.57;;;;;;;9.12;76.10;99285.78;1475661;88;21354;-77
2024/02/23 04:02:27;;;;;;;8.50;5.40;;;;;;;9.13;76.94;99286.13;1477027;88;21368;-78
2024/02/23 04:04:54;;;;;;;9.40;5.73;;;;;;;9.08;77.54;99295.03;1466643;87;21427;-77
2024/02/23 04:07:21;;;;;;;6.10;4.60;;;;;;;9.06;77.92;99297.83;1474928;88;21449;-77
2024/02/23 04:09:52;;;;;;;9.23;5.50;;;;;;;9.04;79.08;99296.69;1473708;87;22270;-77
2024/02/23 04:12:19;;;;;;;8.43;5.60;;;;;;;8.99;80.00;99300.31;1463447;88;21427;-77
2024/02/23 04:14:47;;;;;;;6.10;4.30;;;;;;;8.95;80.06;99293.73;1476815;88;21360;-78
2024/02/23 04:17:14;;;;;;;7.57;4.53;;;;;;;8.90;81.38;99298.66;1467952;87;21405;-78
2024/02/23 04:19:42;;;;;;;8.23;5.17;;;;;;;8.85;81.35;99286.45;1472109;87;22248;-78
2024/02/23 04:22:10;;;;;;;9.67;6.07;;;;;;;8.78;82.51;99275.74;1472072;88;22307;-77
2024/02/23 04:24:41;;;;;;;7.23;4.53;;;;;;;8.76;82.27;99283.48;1476511;87;21279;-77
2024/02/23 04:27:09;;;;;;;8.80;5.27;;;;;;;8.73;83.04;99285.13;1466201;88;21581;-76
2024/02/23 04:29:36;;;;;;;7.17;5.03;;;;;;;8.70;83.24;99287.59;1473353;87;22240;-76
2024/02/23 04:32:04;;;;;;;10.40;5.70;;;;;;;8.67;84.70;99278.70;1460630;88;21383;-76
2024/02/23 04:34:31;;;;;;;6.57;4.77;;;;;;;8.65;84.92;99277.20;1475407;87;21368;-78
2024/02/23 04:36:59;;;;;;;9.40;5.97;;;;;;;8.62;86.39;99280.98;1473718;88;21367;-77
2024/02/23 04:39:26;;;;;;;7.07;5.10;;;;;;;8.59;89.44;99280.00;1473858;88;21691;-78
2024/02/23 04:41:53;;;;;;;10.10;5.77;;;;;;;8.55;89.94;99275.55;1471476;87;21375;-82
2024/02/23 04:44:21;;;;;;;8.33;5.57;;;;;;;8.51;90.95;99278.16;1475844;87;22299;-79
2024/02/23 04:46:48;;;;;;;8.93;5.77;;;;;;;8.45;94.71;99270.91;1476971;88;21870;-78
2024/02/23 04:49:15;;;;;;;7.13;4.47;;;;;;;8.42;94.73;99272.55;1471201;87;21553;-78
2024/02/23 04:51:42;;;;;;;9.17;5.47;;;;;;;8.40;94.09;99278.50;1479483;88;21302;-76
2024/02/23 04:54:10;;;;;;;8.13;4.27;;;;;;;8.39;94.54;99282.10;1480268;87;21346;-77
2024/02/23 04:56:36;;;;;;;5.80;4.10;;;;;;;8.40;94.57;99292.15;1466410;88;22358;-78
2024/02/23 04:59:03;;;;;;;8.53;5.23;;;;;;;8.38;96.55;99292.80;1470246;88;21375;-77
2024/02/23 05:01:37;;;;;;;7.47;4.47;;;;;;;8.36;97.72;99299.03;1461319;88;21413;-77
2024/02/23 05:04:05;;;;;;;8.60;4.97;;;;;;;8.36;98.40;99303.48;1475062;88;21633;-77
2024/02/23 05:06:32;;;;;;;6.50;4.63;;;;;;;8.35;98.43;99312.39;1476894;87;22358;-77
2024/02/23 05:08:59;;;;;;;10.23;5.83;;;;;;;8.33;100.00;99319.62;1472281;87;21331;-77
2024/02/23 05:11:26;;;;;;;8.57;4.77;;;;;;;8.31;100.00;99318.95;1472744;87;21411;-76
2024/02/23 05:13:53;;;;;;;5.97;5.03;;;;;;;8.29;100.00;99322.27;1472188;87;21849;-77
2024/02/23 05:16:20;;;;;;;7.53;5.40;;;;;;;8.24;100.00;99328.50;1476894;87;21434;-77
2024/02/23 05:18:48;;;;;;;7.47;4.30;;;;;;;8.18;100.00;99327.82;1475263;87;22380;-77
2024/02/23 05:21:16;;;;;;;8.27;6.07;;;;;;;8.11;100.00;99331.56;1470624;88;21517;-78
2024/02/23 05:23:43;;;;;;;10.43;5.27;;;;;;;8.05;100.00;99332.20;1465863;88;21323;-78
2024/02/23 05:26:10;;;;;;;9.67;5.50;;;;;;;7.97;100.00;99331.69;1471640;88;21526;-78
2024/02/23 05:28:38;;;;;;;10.27;5.70;;;;;;;7.90;100.00;99338.06;1474422;87;21389;-78
2024/02/23 05:31:05;;;;;;;15.33;6.03;;;;;;;7.85;100.00;99336.88;1476835;87;22211;-78
2024/02/23 05:33:32;;;;;;;9.20;5.57;;;;;;;7.79;100.00;99347.55;1474453;87;21413;-77
2024/02/23 05:35:59;;;;;;;8.53;5.70;;;;;;;7.71;100.00;99344.89;1473669;88;21435;-79
2024/02/23 05:38:26;;;;;;;10.37;6.67;;;;;;;7.65;100.00;99350.28;1473538;87;21583;-77
2024/02/23 05:40:53;;;;;;;10.50;6.53;;;;;;;7.61;100.00;99350.73;1473445;87;21573;-78
2024/02/23 05:43:20;;;;;;;8.60;5.80;;;;;;;7.57;100.00;99345.45;1484243;87;21428;-77
2024/02/23 05:45:47;;;;;;;7.30;5.87;;;;;;;7.57;100.00;99352.04;1475225;87;21345;-78
2024/02/23 05:48:15;;;;;;;9.60;6.20;;;;;;;7.56;100.00;99355.63;1474050;88;21279;-76
2024/02/23 05:50:42;;;;;;;13.00;7.03;;;;;;;7.55;100.00;99346.09;1467900;88;22323;-77
2024/02/23 05:53:10;;;;;;;11.80;7.20;;;;;;;7.56;100.00;99351.19;1471375;87;21361;-77
2024/02/23 05:55:37;;;;;;;11.87;5.77;;;;;;;7.56;100.00;99347.23;1474900;87;21390;-77
2024/02/23 05:58:05;;;;;;;11.53;6.17;;;;;;;7.57;100.00;99350.23;1474746;87;21309;-77
2024/02/23 06:00:32;;;;;;;11.07;6.63;;;;;;;7.58;100.00;99364.22;1470705;87;21389;-77
2024/02/23 06:02:59;;;;;;;10.17;6.87;;;;;;;7.59;100.00;99373.75;1476614;88;21642;-77
2024/02/23 06:05:26;;;;;;;11.60;7.53;;;;;;;7.60;100.00;99381.52;1473060;88;21456;-77
2024/02/23 06:07:53;;;;;;;10.13;6.73;;;;;;;7.62;100.00;99381.34;1475931;87;21316;-77
2024/02/23 06:10:21;;;;;;;7.83;5.73;;;;;;;7.64;100.00;99372.31;1468796;88;21477;-77
2024/02/23 06:12:48;;;;;;;8.83;6.57;;;;;;;7.68;100.00;99374.14;1477276;87;21762;-76
2024/02/23 06:15:15;;;;;;;12.93;6.90;;;;;;;7.72;100.00;99374.19;1478589;87;22314;-77
2024/02/23 06:17:42;;;;;;;9.50;6.47;;;;;;;7.76;100.00;99376.02;1474886;88;22058;-76
2024/02/23 06:20:10;;;;;;;10.60;7.10;;;;;;;7.78;100.00;99383.27;1466610;88;22372;-78
2024/02/23 06:22:38;;;;;;;11.70;6.30;;;;;;;7.80;100.00;99382.64;1478275;87;22277;-78
2024/02/23 06:25:06;;;;;;;9.40;6.90;;;;;;;7.82;100.00;99387.23;1472418;88;21316;-78
2024/02/23 06:27:33;;;;;;;13.80;7.33;;;;;;;7.82;100.00;99380.16;1476717;87;21375;-78
2024/02/23 06:30:00;;;;;;;10.73;6.50;;;;;;;7.82;100.00;99389.88;1466711;88;21790;-78
2024/02/23 06:32:27;;;;;;;12.03;7.80;;;;;;;7.82;100.00;99388.55;1472435;87;21391;-78
2024/02/23 06:34:55;;;;;;;10.70;7.60;;;;;;;7.81;100.00;99386.42;1469462;88;22138;-78
2024/02/23 06:37:22;;;;;;;11.57;8.10;;;;;;;7.79;100.00;99386.23;1473297;87;21382;-78
2024/02/23 06:39:54;;;;;;;10.73;7.23;;;;;;;7.79;100.00;99387.55;1475718;88;21324;-79
2024/02/23 06:42:18;;;;;;;12.40;7.80;;;;;;;7.78;100.00;99384.59;1473420;87;21412;-79
2024/02/23 06:44:45;;;;;;;13.07;8.60;;;;;;;7.76;100.00;99383.41;1476266;87;21301;-80
2024/02/23 06:47:12;;;;;;;11.53;8.23;;;;;;;7.74;100.00;99392.45;1473229;87;21588;-79
2024/02/23 06:49:44;;;;;;;13.47;7.87;;;;;;;7.76;100.00;99387.86;1470309;87;21442;-78
2024/02/23 06:52:11;;;;;;;14.97;9.17;;;;;;;7.79;100.00;99391.50;1451163;87;21501;-78
2024/02/23 06:54:38;;;;;;;10.47;7.50;;;;;;;7.78;100.00;99386.73;1472727;88;21553;-77
2024/02/23 06:57:05;;;;;;;12.87;7.93;;;;;;;7.78;100.00;99378.01;1473566;87;21501;-79
2024/02/23 06:59:32;;;;;;;11.77;8.10;;;;;;;7.80;100.00;99384.78;1469076;88;21478;-78
2024/02/23 07:01:59;;;;;;;13.77;8.50;;;;;;;7.81;100.00;99385.59;1472520;87;21308;-78
2024/02/23 07:04:26;;;;;;;14.87;8.50;;;;;;;7.82;100.00;99385.92;1477402;87;21368;-78
2024/02/23 07:06:56;;;;;;;15.10;7.63;;;;;;;7.83;100.00;99388.91;1480963;87;22336;-79
2024/02/23 07:09:23;;;;;;;13.00;8.03;;;;;;;7.84;100.00;99390.05;1473828;88;21412;-79
2024/02/23 07:11:50;;;;;;;14.30;7.83;;;;;;;7.86;100.00;99398.64;1470678;87;21456;-79
2024/02/23 07:14:18;;;;;;;16.63;10.83;;;;;;;7.88;100.00;99390.10;1476086;88;22233;-78
2024/02/23 07:16:45;;;;;;;14.37;9.47;;;;;;;7.91;100.00;99398.16;1470328;87;22211;-79
2024/02/23 07:19:12;;;;;;;11.90;8.37;;;;;;;7.92;100.00;99398.52;1472751;88;21316;-78
2024/02/23 07:21:39;;;;;;;10.93;7.70;;;;;;;7.97;100.00;99402.83;1469764;88;21361;-78
2024/02/23 07:24:07;;;;;;;11.97;7.67;;;;;;;7.97;100.00;99401.52;1477634;88;21426;-78
2024/02/23 07:26:34;;;;;;;10.67;8.13;;;;;;;7.98;100.00;99400.52;1468305;87;21440;-79
2024/02/23 07:29:02;;;;;;;11.83;8.07;;;;;;;8.00;100.00;99399.03;1470625;88;21368;-79
2024/02/23 07:31:29;;;;;;;12.87;8.47;;;;;;;8.02;100.00;99406.30;1474305;87;22239;-78
2024/02/23 07:33:56;;;;;;;13.80;8.80;;;;;;;8.02;100.00;99398.39;1474521;88;21538;-78
2024/02/23 07:36:23;;;;;;;13.67;7.93;;;;;;;8.02;100.00;99396.58;1469149;87;22359;-79
2024/02/23 07:38:50;;;;;;;20.10;9.30;;;;;;;8.06;100.00;99400.57;1478905;87;21577;-78
2024/02/23 07:41:20;;;;;;;16.20;8.53;;;;;;;8.08;100.00;99403.03;1474780;88;21316;-79
2024/02/23 07:43:47;;;;;;;9.57;6.80;;;;;;;8.08;100.00;99403.03;1478892;87;21361;-79
2024/02/23 07:46:15;;;;;;;12.43;8.30;;;;;;;8.12;100.00;99390.72;1471453;88;21449;-79
2024/02/23 07:48:42;;;;;;;12.07;7.47;;;;;;;8.17;100.00;99388.09;1478702;87;21316;-78
2024/02/23 07:51:09;;;;;;;12.03;7.87;;;;;;;8.22;100.00;99379.22;1469262;88;21468;-79
2024/02/23 07:53:36;;;;;;;20.87;9.23;;;;;;;8.23;100.00;99375.59;1471503;88;21375;-78
2024/02/23 07:56:06;;;;;;;14.27;9.33;;;;;;;8.32;100.00;99383.89;1479197;87;22424;-78
2024/02/23 07:58:34;;;;;;;17.10;10.43;;;;;;;8.34;100.00;99380.12;1478749;87;21434;-78
2024/02/23 08:01:01;;;;;;;17.83;10.93;;;;;;;8.38;100.00;99373.20;1476993;87;21463;-79
2024/02/23 08:03:28;;;;;;;12.77;8.67;;;;;;;8.38;100.00;99389.84;1469958;87;21512;-76
2024/02/23 08:05:55;;;;;;;16.40;10.53;;;;;;;8.42;100.00;99393.84;1475395;87;21471;-78
2024/02/23 08:08:23;;;;;;;10.40;7.20;;;;;;;8.45;100.00;99399.29;1472731;87;22278;-78
2024/02/23 08:10:51;;;;;;;15.63;8.00;;;;;;;8.42;100.00;99400.43;1471060;87;21530;-78
2024/02/23 08:13:18;;;;;;;11.30;7.07;;;;;;;8.44;100.00;99402.92;1473428;88;21442;-78
2024/02/23 08:15:45;;;;;;;13.57;8.07;;;;;;;8.43;100.00;99406.06;1470062;87;21376;-79
2024/02/23 08:18:12;;;;;;;14.77;9.17;;;;;;;8.43;100.00;99411.33;1473032;87;22387;-79
2024/02/23 08:20:39;;;;;;;13.57;8.27;;;;;;;8.45;100.00;99404.56;1469614;88;21582;-79
2024/02/23 08:23:06;;;;;;;13.23;9.30;;;;;;;8.41;100.00;99405.38;1470095;87;22308;-79
2024/02/23 08:25:33;;;;;;;13.03;7.73;;;;;;;8.41;100.00;99396.16;1471607;88;21433;-78
2024/02/23 08:28:01;;;;;;;12.10;7.87;;;;;;;8.42;100.00;99393.84;1473523;88;21375;-78
2024/02/23 08:30:28;;;;;;;18.67;10.40;;;;;;;8.44;100.00;99393.20;1477358;87;21817;-79
2024/02/23 08:32:54;;;;;;;10.23;7.07;;;;;;;8.47;100.00;99392.88;1472117;87;21999;-78
2024/02/23 08:35:21;;;;;;;8.97;6.30;;;;;;;8.47;100.00;99394.19;1475071;87;21354;-78
2024/02/23 08:37:49;;;;;;;14.87;7.90;;;;;;;8.44;100.00;99387.92;1474671;87;21463;-79
2024/02/23 08:40:16;;;;;;;8.37;6.03;;;;;;;8.48;100.00;99389.24;1468767;87;21331;-78
2024/02/23 08:42:43;;;;;;;11.33;7.30;;;;;;;8.49;100.00;99388.77;1477934;88;22294;-77
2024/02/23 08:45:13;;;;;;;9.87;6.20;;;;;;;8.50;100.00;99384.64;1473698;88;21339;-78
2024/02/23 08:47:42;;;;;;;11.40;6.37;;;;;;;8.53;100.00;99396.19;1477051;88;22284;-77
2024/02/23 08:50:09;;;;;;;13.70;7.53;;;;;;;8.50;100.00;99395.19;1473873;87;22809;-78
2024/02/23 08:52:36;;;;;;;11.77;7.80;;;;;;;8.51;100.00;99395.52;1479139;87;21419;-78
2024/02/23 08:55:04;;;;;;;15.30;7.40;;;;;;;8.50;100.00;99392.55;1471457;87;21478;-77
2024/02/23 08:57:31;;;;;;;12.43;8.57;;;;;;;8.52;100.00;99395.87;1468863;87;21494;-77
2024/02/23 08:59:58;;;;;;;10.53;7.47;;;;;;;8.51;100.00;99392.88;1475439;87;21544;-76
2024/02/23 09:02:25;;;;;;;10.90;8.00;;;;;;;8.54;100.00;99397.02;1473374;87;21810;-76
2024/02/23 09:04:53;;;;;;;13.53;8.63;;;;;;;8.51;100.00;99395.52;1464912;88;21547;-77
2024/02/23 09:07:20;;;;;;;11.93;7.27;;;;;;;8.53;100.00;99400.14;1478618;87;21449;-78
2024/02/23 09:09:50;;;;;;;10.50;6.43;;;;;;;8.51;100.00;99386.28;1471979;87;21417;-78
2024/02/23 09:12:18;;;;;;;9.17;6.70;;;;;;;8.47;100.00;99394.19;1475423;88;21449;-77
2024/02/23 09:14:45;;;;;;;10.40;7.30;;;;;;;8.52;100.00;99400.32;1475755;87;21397;-76
2024/02/23 09:17:13;;;;;;;9.83;7.37;;;;;;;8.53;100.00;99402.78;1466474;87;21611;-77
2024/02/23 09:19:40;;;;;;;11.80;7.97;;;;;;;8.58;100.00;99401.81;1474717;88;21375;-77
2024/02/23 09:22:07;;;;;;;11.37;6.87;;;;;;;8.59;100.00;99402.14;1477548;88;21433;-77
2024/02/23 09:24:35;;;;;;;11.47;6.17;;;;;;;8.63;100.00;99400.50;1480318;87;22374;-76
2024/02/23 09:27:03;;;;;;;11.67;6.70;;;;;;;8.64;100.00;99403.48;1479004;87;21457;-78
2024/02/23 09:29:30;;;;;;;9.13;5.70;;;;;;;8.65;100.00;99407.27;1477767;88;21487;-77
2024/02/23 09:31:57;;;;;;;11.80;8.00;;;;;;;8.67;100.00;99409.27;1478495;88;21591;-77
2024/02/23 09:34:25;;;;;;;11.93;7.30;;;;;;;8.68;100.00;99410.09;1469709;87;21368;-76
2024/02/23 09:36:52;;;;;;;10.77;7.03;;;;;;;8.69;100.00;99412.58;1473260;87;21456;-78
2024/02/23 09:39:20;;;;;;;9.77;6.50;;;;;;;8.74;100.00;99406.80;1469716;88;21308;-78
2024/02/23 09:41:51;;;;;;;8.87;7.03;;;;;;;8.73;100.00;99403.34;1478887;87;21457;-79
2024/02/23 09:44:20;;;;;;;9.23;5.85;;;;;;;8.74;100.00;99401.53;1478873;87;22218;-78
2024/02/23 09:46:48;;;;;;;8.20;6.10;;;;;;;8.75;100.00;99405.84;1469888;88;21546;-79
2024/02/23 09:49:16;;;;;;;11.17;5.93;;;;;;;8.77;100.00;99393.28;1479050;88;21345;-78
2024/02/23 09:51:44;;;;;;;8.67;5.97;;;;;;;8.79;100.00;99396.59;1475988;87;21412;-79
2024/02/23 09:54:11;;;;;;;11.77;6.20;;;;;;;8.79;100.00;99400.55;1475037;87;21553;-84
2024/02/23 09:56:40;;;;;;;18.20;6.73;;;;;;;8.87;100.00;99399.27;1467500;88;21382;-83
2024/02/23 09:59:07;;;;;;;10.37;6.53;;;;;;;9.18;100.00;99394.70;1476437;88;22247;-84
2024/02/23 10:01:36;;;;;;;10.63;6.50;;;;;;;9.41;100.00;99399.66;1475766;88;21382;-85
2024/02/23 10:04:04;;;;;;;10.93;6.67;;;;;;;9.42;100.00;99401.30;1473335;87;21493;-80
2024/02/23 10:06:31;;;;;;;11.23;5.80;;;;;;;9.39;100.00;99398.98;1466739;88;21408;-83
2024/02/23 10:08:59;;;;;;;10.20;7.20;;;;;;;9.57;100.00;99398.81;1470249;87;21487;-75
2024/02/23 10:11:26;;;;;;;8.43;5.37;;;;;;;9.60;100.00;99398.98;1472223;88;22313;-78
2024/02/23 10:13:53;;;;;;;8.83;6.13;;;;;;;9.49;100.00;99400.13;1477327;88;21302;-79
2024/02/23 10:16:22;;;;;;;13.00;7.17;;;;;;;9.34;100.00;99398.65;1472071;87;21914;-77
2024/02/23 10:18:49;;;;;;;8.30;6.47;;;;;;;9.29;100.00;99401.45;1450750;87;21339;-77
2024/02/23 10:21:17;;;;;;;12.37;6.50;;;;;;;9.22;100.00;99407.89;1465903;87;21323;-75
2024/02/23 10:23:45;;;;;;;9.77;6.20;;;;;;;9.18;100.00;99403.94;1470049;88;22351;-76
2024/02/23 10:26:12;;;;;;;14.77;5.50;;;;;;;9.17;100.00;99405.73;1474604;88;21620;-76
2024/02/23 10:28:40;;;;;;;6.73;5.17;;;;;;;9.12;100.00;99397.97;1474433;87;21361;-77
2024/02/23 10:31:07;;;;;;;9.63;5.70;;;;;;;9.10;100.00;99402.61;1476132;88;21324;-76
2024/02/23 10:33:35;;;;;;;8.03;5.03;;;;;;;9.13;100.00;99396.50;1474612;87;21294;-76
2024/02/23 10:36:08;;;;;;;9.97;5.87;;;;;;;9.15;100.00;99391.89;1471330;88;21456;-77
2024/02/23 10:38:38;;;;;;;9.13;5.73;;;;;;;9.18;100.00;99386.78;1489649;88;22535;-79
2024/02/23 10:41:08;;;;;;;9.60;6.85;;;;;;;9.19;100.00;99383.14;1480896;87;21405;-78
2024/02/23 10:43:43;;;;;;;10.20;5.67;;;;;;;9.22;100.00;99378.85;1472712;88;21434;-78
2024/02/23 10:46:17;;;;;;;8.87;6.07;;;;;;;9.21;100.00;99379.85;1480973;87;23109;-77
2024/02/23 10:48:43;;;;;;;;;;;;;;;9.18;100.00;99374.91;1468010;88;21470;-78
2024/02/23 10:51:13;;;;;;;13.43;7.73;;;;;;;9.15;100.00;99380.01;1471888;88;20310;-78
2024/02/23 10:53:41;;;;;;;12.68;7.22;;;;;;;9.15;100.00;99384.44;1471039;87;21493;-78
2024/02/23 10:56:10;;;;;;;10.27;7.63;;;;;;;9.14;100.00;99382.80;1475675;88;21487;-76
2024/02/23 10:58:37;;;;;;;9.87;6.50;;;;;;;9.16;100.00;99381.65;1473851;88;21422;-79
2024/02/23 11:01:08;;;;;;;10.07;6.40;;;;;;;9.19;100.00;99392.38;1480106;87;21287;-77
2024/02/23 11:03:38;;;;;;;10.70;6.40;;;;;;;9.21;100.00;99394.38;1465324;87;21538;-78
2024/02/23 11:06:08;;;;;;;8.40;5.70;;;;;;;9.24;100.00;99398.00;1456896;88;21523;-78
2024/02/23 11:08:38;;;;;;;8.53;5.65;;;;;;;9.33;100.00;99385.13;1477445;88;21345;-77
2024/02/23 11:11:10;;;;;;;8.73;6.20;;;;;;;9.40;100.00;99397.17;1473931;87;21464;-77
2024/02/23 11:13:44;;;;;;;8.93;5.60;;;;;;;9.46;100.00;99392.54;1471525;87;21346;-77
2024/02/23 11:16:13;;;;;;;11.03;6.27;;;;;;;9.56;100.00;99398.49;1478424;88;21353;-78
2024/02/23 11:18:41;;;;;;;10.97;6.80;;;;;;;9.62;100.00;99404.93;1465807;88;22386;-78
2024/02/23 11:21:10;;;;;;;11.77;6.47;;;;;;;9.64;100.00;99414.84;1475686;87;21375;-78
2024/02/23 11:23:51;;;;;;;10.60;7.93;;;;;;;9.66;100.00;99412.84;1470702;88;22366;-79
2024/02/23 11:26:18;;;;;;;10.08;6.80;;;;;;;9.69;100.00;99405.90;1464372;88;21345;-78
2024/02/23 11:28:55;;;;;;;10.73;7.13;;;;;;;9.76;100.00;99416.14;1472051;87;21294;-79
2024/02/23 11:31:29;;;;;;;13.67;6.63;;;;;;;9.83;100.00;99418.44;1469039;87;21482;-78
2024/02/23 11:33:57;;;;;;;12.13;6.83;;;;;;;9.89;100.00;99417.77;1472672;88;21368;-78